Weather at Chattanooga Metropolitan Airport (Lovell Field)

Public forecast

Using degrees Fahrenheit for public forecast. Weather courtesy of forecast.io.

Current aviation weather report (METAR) for Chattanooga Metropolitan Airport (Lovell Field)

2024/05/18 09:06 (retrieved 10 minutes ago)

KCHA 180906Z AUTO 00000KT 10SM FEW007 BKN020 BKN039 21/19 A2985 RMK AO2 T02060189

Aviation forecast (TAF) for Chattanooga Metropolitan Airport (Lovell Field)

2024/05/18 06:36 (retrieved 3 hours ago)

TAF KCHA 180534Z 1806/1906 15003KT P6SM SCT007 OVC015 TEMPO 1808/1812 4SM BR BKN007 OVC012 FM181400 VRB03KT P6SM BKN025 FM181600 VRB05KT P6SM VCSH BKN035 PROB30 1819/1901 4SM -TSRA BR OVC025CB FM190100 35003KT P6SM VCSH SCT035 BKN060